sensor_id;sensor_type;location;lat;lon;timestamp;pressure;altitude;pressure_sealevel;temperature;humidity
79331;BME280;68797;49.782;19.054;2024-03-29T00:00:43;95792.94;;;7.03;100.00
79331;BME280;68797;49.782;19.054;2024-03-29T00:03:34;95805.31;;;7.22;100.00
79331;BME280;68797;49.782;19.054;2024-03-29T00:06:01;95811.09;;;7.10;100.00
79331;BME280;68797;49.782;19.054;2024-03-29T00:08:29;95802.16;;;6.92;100.00
79331;BME280;68797;49.782;19.054;2024-03-29T00:10:56;95806.13;;;7.03;100.00
79331;BME280;68797;49.782;19.054;2024-03-29T00:13:26;95807.91;;;7.02;100.00
79331;BME280;68797;49.782;19.054;2024-03-29T00:15:52;95819.31;;;7.03;100.00
79331;BME280;68797;49.782;19.054;2024-03-29T00:18:20;95814.69;;;7.08;100.00
79331;BME280;68797;49.782;19.054;2024-03-29T00:20:49;95826.19;;;7.07;100.00
79331;BME280;68797;49.782;19.054;2024-03-29T00:23:22;95829.88;;;7.03;100.00
79331;BME280;68797;49.782;19.054;2024-03-29T00:25:49;95841.66;;;6.94;100.00
79331;BME280;68797;49.782;19.054;2024-03-29T00:28:16;95850.25;;;6.99;100.00
79331;BME280;68797;49.782;19.054;2024-03-29T00:30:45;95863.28;;;6.80;100.00
79331;BME280;68797;49.782;19.054;2024-03-29T00:33:14;95874.69;;;6.81;100.00
79331;BME280;68797;49.782;19.054;2024-03-29T00:35:41;95868.63;;;6.79;100.00
79331;BME280;68797;49.782;19.054;2024-03-29T00:38:08;95865.78;;;6.61;100.00
79331;BME280;68797;49.782;19.054;2024-03-29T00:40:38;95853.16;;;6.69;100.00
79331;BME280;68797;49.782;19.054;2024-03-29T00:43:04;95858.56;;;6.66;100.00
79331;BME280;68797;49.782;19.054;2024-03-29T00:45:31;95854.72;;;6.52;100.00
79331;BME280;68797;49.782;19.054;2024-03-29T00:47:59;95854.13;;;6.45;100.00
79331;BME280;68797;49.782;19.054;2024-03-29T00:50:28;95854.84;;;6.49;100.00
79331;BME280;68797;49.782;19.054;2024-03-29T00:52:56;95866.31;;;6.48;100.00
79331;BME280;68797;49.782;19.054;2024-03-29T00:55:23;95869.81;;;6.48;100.00
79331;BME280;68797;49.782;19.054;2024-03-29T00:57:50;95867.72;;;6.34;100.00
79331;BME280;68797;49.782;19.054;2024-03-29T01:00:17;95886.81;;;6.39;100.00
79331;BME280;68797;49.782;19.054;2024-03-29T01:02:47;95895.44;;;6.45;100.00
79331;BME280;68797;49.782;19.054;2024-03-29T01:05:14;95887.69;;;6.40;100.00
79331;BME280;68797;49.782;19.054;2024-03-29T01:07:41;95893.00;;;6.38;100.00
79331;BME280;68797;49.782;19.054;2024-03-29T01:10:09;95910.66;;;6.36;100.00
79331;BME280;68797;49.782;19.054;2024-03-29T01:12:37;95917.16;;;6.26;100.00
79331;BME280;68797;49.782;19.054;2024-03-29T01:15:09;95914.88;;;6.40;100.00
79331;BME280;68797;49.782;19.054;2024-03-29T01:17:37;95920.41;;;6.34;100.00
79331;BME280;68797;49.782;19.054;2024-03-29T01:20:03;95919.94;;;6.47;100.00
79331;BME280;68797;49.782;19.054;2024-03-29T01:22:29;95942.00;;;6.44;100.00
79331;BME280;68797;49.782;19.054;2024-03-29T01:24:57;95943.38;;;6.29;100.00
79331;BME280;68797;49.782;19.054;2024-03-29T01:27:26;95959.78;;;6.37;100.00
79331;BME280;68797;49.782;19.054;2024-03-29T01:29:53;95959.44;;;6.23;100.00
79331;BME280;68797;49.782;19.054;2024-03-29T01:32:21;95972.31;;;6.31;100.00
79331;BME280;68797;49.782;19.054;2024-03-29T01:34:48;95982.22;;;6.24;100.00
79331;BME280;68797;49.782;19.054;2024-03-29T01:37:16;95984.63;;;6.30;100.00
79331;BME280;68797;49.782;19.054;2024-03-29T01:39:43;95983.66;;;6.08;100.00
79331;BME280;68797;49.782;19.054;2024-03-29T01:42:12;95993.56;;;6.26;100.00
79331;BME280;68797;49.782;19.054;2024-03-29T01:44:39;96001.72;;;6.19;100.00
79331;BME280;68797;49.782;19.054;2024-03-29T01:47:06;96013.75;;;6.26;100.00
79331;BME280;68797;49.782;19.054;2024-03-29T01:49:33;96006.25;;;6.15;100.00
79331;BME280;68797;49.782;19.054;2024-03-29T01:52:00;96019.16;;;6.23;100.00
79331;BME280;68797;49.782;19.054;2024-03-29T01:54:28;96023.59;;;6.21;99.70
79331;BME280;68797;49.782;19.054;2024-03-29T01:56:56;96043.34;;;6.34;100.00
79331;BME280;68797;49.782;19.054;2024-03-29T01:59:25;96047.94;;;6.27;100.00
79331;BME280;68797;49.782;19.054;2024-03-29T02:01:54;96048.06;;;6.24;100.00
79331;BME280;68797;49.782;19.054;2024-03-29T02:04:21;96051.13;;;6.37;97.94
79331;BME280;68797;49.782;19.054;2024-03-29T02:06:49;96055.34;;;6.16;99.60
79331;BME280;68797;49.782;19.054;2024-03-29T02:09:17;96068.09;;;6.28;98.84
79331;BME280;68797;49.782;19.054;2024-03-29T02:11:46;96073.25;;;6.31;99.16
79331;BME280;68797;49.782;19.054;2024-03-29T02:14:12;96084.13;;;6.22;98.58
79331;BME280;68797;49.782;19.054;2024-03-29T02:16:39;96079.72;;;6.23;97.72
79331;BME280;68797;49.782;19.054;2024-03-29T02:19:06;96079.56;;;6.27;97.99
79331;BME280;68797;49.782;19.054;2024-03-29T02:21:37;96089.03;;;6.33;96.41
79331;BME280;68797;49.782;19.054;2024-03-29T02:24:08;96094.09;;;6.39;96.31
79331;BME280;68797;49.782;19.054;2024-03-29T02:26:36;96094.88;;;6.41;96.16
79331;BME280;68797;49.782;19.054;2024-03-29T02:29:08;96085.19;;;6.43;95.33
79331;BME280;68797;49.782;19.054;2024-03-29T02:31:43;96104.13;;;6.54;94.06
79331;BME280;68797;49.782;19.054;2024-03-29T02:34:10;96105.84;;;6.29;96.15
79331;BME280;68797;49.782;19.054;2024-03-29T02:36:36;96100.00;;;6.46;95.13
79331;BME280;68797;49.782;19.054;2024-03-29T02:39:05;96105.53;;;6.38;92.90
79331;BME280;68797;49.782;19.054;2024-03-29T02:41:32;96107.16;;;6.42;94.15
79331;BME280;68797;49.782;19.054;2024-03-29T02:43:59;96118.47;;;6.46;92.03
79331;BME280;68797;49.782;19.054;2024-03-29T02:46:25;96124.53;;;6.48;92.47
79331;BME280;68797;49.782;19.054;2024-03-29T02:48:52;96122.81;;;6.47;92.08
79331;BME280;68797;49.782;19.054;2024-03-29T02:51:20;96115.59;;;6.52;90.35
79331;BME280;68797;49.782;19.054;2024-03-29T02:53:46;96133.69;;;6.62;89.51
79331;BME280;68797;49.782;19.054;2024-03-29T02:56:13;96135.69;;;6.56;89.40
79331;BME280;68797;49.782;19.054;2024-03-29T02:58:42;96137.94;;;6.66;87.02
79331;BME280;68797;49.782;19.054;2024-03-29T03:01:09;96142.25;;;6.69;87.24
79331;BME280;68797;49.782;19.054;2024-03-29T03:03:37;96147.47;;;6.70;87.27
79331;BME280;68797;49.782;19.054;2024-03-29T03:06:04;96132.34;;;6.76;85.53
79331;BME280;68797;49.782;19.054;2024-03-29T03:08:31;96143.47;;;6.84;86.70
79331;BME280;68797;49.782;19.054;2024-03-29T03:11:16;96135.69;;;6.81;85.82
79331;BME280;68797;49.782;19.054;2024-03-29T03:13:44;96142.72;;;6.80;86.43
79331;BME280;68797;49.782;19.054;2024-03-29T03:16:11;96134.97;;;6.76;87.35
79331;BME280;68797;49.782;19.054;2024-03-29T03:18:38;96138.25;;;6.57;87.31
79331;BME280;68797;49.782;19.054;2024-03-29T03:21:05;96138.75;;;6.68;88.85
79331;BME280;68797;49.782;19.054;2024-03-29T03:23:32;96132.75;;;6.63;87.47
79331;BME280;68797;49.782;19.054;2024-03-29T03:25:59;96127.28;;;6.69;86.75
79331;BME280;68797;49.782;19.054;2024-03-29T03:28:26;96122.16;;;6.65;86.40
79331;BME280;68797;49.782;19.054;2024-03-29T03:30:54;96129.06;;;6.69;85.06
79331;BME280;68797;49.782;19.054;2024-03-29T03:33:23;96125.69;;;6.65;85.35
79331;BME280;68797;49.782;19.054;2024-03-29T03:35:50;96128.25;;;6.67;84.83
79331;BME280;68797;49.782;19.054;2024-03-29T03:38:17;96128.25;;;6.67;84.61
79331;BME280;68797;49.782;19.054;2024-03-29T03:40:44;96133.53;;;6.67;85.76
79331;BME280;68797;49.782;19.054;2024-03-29T03:43:11;96146.09;;;6.59;87.19
79331;BME280;68797;49.782;19.054;2024-03-29T03:45:39;96149.50;;;6.62;85.73
79331;BME280;68797;49.782;19.054;2024-03-29T03:48:09;96165.06;;;6.70;85.28
79331;BME280;68797;49.782;19.054;2024-03-29T03:50:38;96150.34;;;6.63;86.13
79331;BME280;68797;49.782;19.054;2024-03-29T03:53:05;96162.31;;;6.73;81.36
79331;BME280;68797;49.782;19.054;2024-03-29T03:55:35;96166.72;;;6.73;83.67
79331;BME280;68797;49.782;19.054;2024-03-29T03:58:02;96157.31;;;6.65;85.38
79331;BME280;68797;49.782;19.054;2024-03-29T04:00:30;96165.31;;;6.62;86.67
79331;BME280;68797;49.782;19.054;2024-03-29T04:02:57;96146.97;;;6.59;84.53
79331;BME280;68797;49.782;19.054;2024-03-29T04:05:24;96144.69;;;6.49;88.11
79331;BME280;68797;49.782;19.054;2024-03-29T04:07:58;96163.31;;;6.44;88.67
79331;BME280;68797;49.782;19.054;2024-03-29T04:10:25;96162.69;;;6.36;89.96
79331;BME280;68797;49.782;19.054;2024-03-29T04:12:52;96161.31;;;6.24;91.92
79331;BME280;68797;49.782;19.054;2024-03-29T04:15:19;96174.97;;;6.09;92.47
79331;BME280;68797;49.782;19.054;2024-03-29T04:17:46;96175.59;;;5.89;93.76
79331;BME280;68797;49.782;19.054;2024-03-29T04:20:14;96172.22;;;5.84;95.35
79331;BME280;68797;49.782;19.054;2024-03-29T04:22:43;96164.16;;;5.90;94.92
79331;BME280;68797;49.782;19.054;2024-03-29T04:25:11;96171.34;;;5.83;95.46
79331;BME280;68797;49.782;19.054;2024-03-29T04:27:38;96181.19;;;5.78;95.67
79331;BME280;68797;49.782;19.054;2024-03-29T04:30:06;96194.72;;;5.65;96.71
79331;BME280;68797;49.782;19.054;2024-03-29T04:32:36;96193.75;;;5.69;97.22
79331;BME280;68797;49.782;19.054;2024-03-29T04:35:02;96212.81;;;5.77;95.79
79331;BME280;68797;49.782;19.054;2024-03-29T04:37:29;96211.03;;;5.77;96.26
79331;BME280;68797;49.782;19.054;2024-03-29T04:39:56;96222.50;;;5.75;96.83
79331;BME280;68797;49.782;19.054;2024-03-29T04:42:23;96221.50;;;5.79;96.23
79331;BME280;68797;49.782;19.054;2024-03-29T04:44:49;96230.53;;;5.70;96.15
79331;BME280;68797;49.782;19.054;2024-03-29T04:47:18;96255.34;;;5.62;97.43
79331;BME280;68797;49.782;19.054;2024-03-29T04:49:45;96254.47;;;5.61;96.34
79331;BME280;68797;49.782;19.054;2024-03-29T04:52:16;96253.81;;;5.54;96.97
79331;BME280;68797;49.782;19.054;2024-03-29T04:54:43;96244.91;;;5.59;97.19
79331;BME280;68797;49.782;19.054;2024-03-29T04:57:10;96248.81;;;5.45;98.14
79331;BME280;68797;49.782;19.054;2024-03-29T04:59:39;96268.03;;;5.47;98.71
79331;BME280;68797;49.782;19.054;2024-03-29T05:02:07;96256.44;;;5.54;96.55
79331;BME280;68797;49.782;19.054;2024-03-29T05:04:33;96259.63;;;5.66;97.62
79331;BME280;68797;49.782;19.054;2024-03-29T05:07:00;96254.13;;;5.73;97.25
79331;BME280;68797;49.782;19.054;2024-03-29T05:09:31;96254.97;;;5.74;97.20
79331;BME280;68797;49.782;19.054;2024-03-29T05:11:58;96248.19;;;5.67;98.18
79331;BME280;68797;49.782;19.054;2024-03-29T05:14:25;96242.56;;;5.79;97.71
79331;BME280;68797;49.782;19.054;2024-03-29T05:16:52;96253.16;;;5.77;96.83
79331;BME280;68797;49.782;19.054;2024-03-29T05:19:19;96242.25;;;5.91;94.27
79331;BME280;68797;49.782;19.054;2024-03-29T05:21:47;96225.19;;;6.03;94.30
79331;BME280;68797;49.782;19.054;2024-03-29T05:24:14;96231.06;;;6.13;95.84
79331;BME280;68797;49.782;19.054;2024-03-29T05:26:41;96247.50;;;6.19;94.03
79331;BME280;68797;49.782;19.054;2024-03-29T05:29:08;96249.97;;;6.25;94.66
79331;BME280;68797;49.782;19.054;2024-03-29T05:31:36;96250.66;;;6.32;93.44
79331;BME280;68797;49.782;19.054;2024-03-29T05:34:08;96251.28;;;6.38;93.16
79331;BME280;68797;49.782;19.054;2024-03-29T05:36:36;96249.34;;;6.45;92.92
79331;BME280;68797;49.782;19.054;2024-03-29T05:39:02;96258.00;;;6.49;92.99
79331;BME280;68797;49.782;19.054;2024-03-29T05:41:30;96249.00;;;6.56;91.98
79331;BME280;68797;49.782;19.054;2024-03-29T05:44:00;96263.44;;;6.70;91.51
79331;BME280;68797;49.782;19.054;2024-03-29T05:46:27;96269.88;;;6.62;92.90
79331;BME280;68797;49.782;19.054;2024-03-29T05:48:53;96273.81;;;6.75;92.35
79331;BME280;68797;49.782;19.054;2024-03-29T05:51:24;96274.16;;;6.64;92.83
79331;BME280;68797;49.782;19.054;2024-03-29T05:53:51;96283.63;;;6.72;91.54
79331;BME280;68797;49.782;19.054;2024-03-29T05:56:31;96282.69;;;6.73;92.00
79331;BME280;68797;49.782;19.054;2024-03-29T05:59:01;96255.06;;;6.84;91.44
79331;BME280;68797;49.782;19.054;2024-03-29T06:01:32;96253.78;;;6.96;89.37
79331;BME280;68797;49.782;19.054;2024-03-29T06:04:02;96245.44;;;7.10;90.26
79331;BME280;68797;49.782;19.054;2024-03-29T06:06:35;96247.03;;;7.14;87.96
79331;BME280;68797;49.782;19.054;2024-03-29T06:09:01;96252.25;;;7.15;89.68
79331;BME280;68797;49.782;19.054;2024-03-29T06:11:28;96256.88;;;7.09;88.63
79331;BME280;68797;49.782;19.054;2024-03-29T06:13:56;96264.28;;;7.24;89.91
79331;BME280;68797;49.782;19.054;2024-03-29T06:16:28;96253.81;;;7.46;88.24
79331;BME280;68797;49.782;19.054;2024-03-29T06:19:14;96253.06;;;7.91;86.99
79331;BME280;68797;49.782;19.054;2024-03-29T06:21:41;96242.28;;;8.42;84.62
79331;BME280;68797;49.782;19.054;2024-03-29T06:24:10;96255.59;;;9.05;81.49
79331;BME280;68797;49.782;19.054;2024-03-29T06:26:41;96249.63;;;9.60;80.66
79331;BME280;68797;49.782;19.054;2024-03-29T06:29:13;96238.25;;;10.16;77.43
79331;BME280;68797;49.782;19.054;2024-03-29T06:31:42;96245.63;;;10.66;75.57
79331;BME280;68797;49.782;19.054;2024-03-29T06:34:09;96245.44;;;10.88;74.74
79331;BME280;68797;49.782;19.054;2024-03-29T06:36:36;96245.22;;;10.93;74.43
79331;BME280;68797;49.782;19.054;2024-03-29T06:39:05;96247.03;;;11.10;74.90
79331;BME280;68797;49.782;19.054;2024-03-29T06:41:32;96255.28;;;11.03;73.60
79331;BME280;68797;49.782;19.054;2024-03-29T06:43:58;96250.00;;;11.38;73.44
79331;BME280;68797;49.782;19.054;2024-03-29T07:55:23;96292.19;;;14.83;51.06
79331;BME280;68797;49.782;19.054;2024-03-29T08:32:08;96296.94;;;15.61;48.42
79331;BME280;68797;49.782;19.054;2024-03-29T08:34:40;96310.19;;;15.35;44.45
79331;BME280;68797;49.782;19.054;2024-03-29T08:37:07;96311.81;;;15.11;45.34
79331;BME280;68797;49.782;19.054;2024-03-29T08:39:34;96327.03;;;14.82;45.01
79331;BME280;68797;49.782;19.054;2024-03-29T08:42:07;96337.63;;;15.25;46.62
79331;BME280;68797;49.782;19.054;2024-03-29T08:44:39;96322.75;;;15.48;48.34
79331;BME280;68797;49.782;19.054;2024-03-29T08:47:07;96300.63;;;15.58;53.00
79331;BME280;68797;49.782;19.054;2024-03-29T08:49:39;96300.63;;;15.58;50.57
79331;BME280;68797;49.782;19.054;2024-03-29T08:52:07;96320.13;;;15.87;45.35
79331;BME280;68797;49.782;19.054;2024-03-29T08:54:35;96311.88;;;16.03;52.57
79331;BME280;68797;49.782;19.054;2024-03-29T08:57:03;96311.97;;;15.89;45.99
79331;BME280;68797;49.782;19.054;2024-03-29T08:59:31;96314.28;;;15.68;45.33
79331;BME280;68797;49.782;19.054;2024-03-29T09:02:06;96318.59;;;15.96;48.02
79331;BME280;68797;49.782;19.054;2024-03-29T09:04:36;96308.00;;;15.82;45.56
79331;BME280;68797;49.782;19.054;2024-03-29T09:07:03;96303.25;;;15.73;43.72
79331;BME280;68797;49.782;19.054;2024-03-29T09:09:34;96309.81;;;15.81;49.66
79331;BME280;68797;49.782;19.054;2024-03-29T09:12:02;96322.38;;;16.06;43.27
79331;BME280;68797;49.782;19.054;2024-03-29T09:14:32;96303.81;;;15.51;44.59
79331;BME280;68797;49.782;19.054;2024-03-29T09:17:01;96301.81;;;15.94;47.06
79331;BME280;68797;49.782;19.054;2024-03-29T09:19:32;96300.75;;;15.57;42.19
79331;BME280;68797;49.782;19.054;2024-03-29T09:22:02;96301.84;;;15.40;44.55
79331;BME280;68797;49.782;19.054;2024-03-29T09:24:30;96297.06;;;15.45;45.10
79331;BME280;68797;49.782;19.054;2024-03-29T09:26:58;96286.53;;;15.56;44.80
79331;BME280;68797;49.782;19.054;2024-03-29T09:29:25;96307.91;;;15.56;42.55
79331;BME280;68797;49.782;19.054;2024-03-29T09:31:55;96299.41;;;15.37;46.70
79331;BME280;68797;49.782;19.054;2024-03-29T09:34:23;96290.38;;;15.25;48.01
79331;BME280;68797;49.782;19.054;2024-03-29T09:36:51;96302.81;;;15.39;44.15
79331;BME280;68797;49.782;19.054;2024-03-29T09:39:21;96293.50;;;15.32;44.48
79331;BME280;68797;49.782;19.054;2024-03-29T09:41:49;96273.53;;;15.10;45.47
79331;BME280;68797;49.782;19.054;2024-03-29T09:44:17;96282.16;;;15.28;43.83
79331;BME280;68797;49.782;19.054;2024-03-29T09:46:50;96287.25;;;15.19;42.62
79331;BME280;68797;49.782;19.054;2024-03-29T09:49:20;96282.19;;;15.14;42.89
79331;BME280;68797;49.782;19.054;2024-03-29T09:51:49;96282.31;;;15.13;44.13
79331;BME280;68797;49.782;19.054;2024-03-29T09:54:19;96296.03;;;15.21;43.83
79331;BME280;68797;49.782;19.054;2024-03-29T09:56:56;96299.84;;;15.17;42.26
79331;BME280;68797;49.782;19.054;2024-03-29T09:59:25;96288.75;;;15.23;48.27
79331;BME280;68797;49.782;19.054;2024-03-29T10:01:55;96309.69;;;15.43;44.60
79331;BME280;68797;49.782;19.054;2024-03-29T10:04:27;96290.88;;;15.45;46.19
79331;BME280;68797;49.782;19.054;2024-03-29T10:06:59;96310.44;;;15.72;48.78
79331;BME280;68797;49.782;19.054;2024-03-29T10:09:31;96304.16;;;15.86;46.96
79331;BME280;68797;49.782;19.054;2024-03-29T10:12:02;96271.41;;;15.43;43.44
79331;BME280;68797;49.782;19.054;2024-03-29T10:14:42;96299.72;;;15.72;48.79
79331;BME280;68797;49.782;19.054;2024-03-29T10:17:16;96293.41;;;15.60;46.60
79331;BME280;68797;49.782;19.054;2024-03-29T10:19:44;96311.00;;;15.77;44.21
79331;BME280;68797;49.782;19.054;2024-03-29T10:22:13;96307.75;;;15.72;46.50
79331;BME280;68797;49.782;19.054;2024-03-29T10:24:41;96299.25;;;15.92;43.64
79331;BME280;68797;49.782;19.054;2024-03-29T10:27:08;96293.38;;;15.21;38.65
79331;BME280;68797;49.782;19.054;2024-03-29T10:29:35;96296.88;;;15.21;41.11
79331;BME280;68797;49.782;19.054;2024-03-29T10:32:05;96301.88;;;15.13;38.94
79331;BME280;68797;49.782;19.054;2024-03-29T10:34:32;96273.00;;;15.18;41.53
79331;BME280;68797;49.782;19.054;2024-03-29T10:37:03;96267.75;;;15.31;41.83
79331;BME280;68797;49.782;19.054;2024-03-29T10:39:32;96254.81;;;15.37;43.98
79331;BME280;68797;49.782;19.054;2024-03-29T10:42:03;96243.91;;;15.40;41.91
79331;BME280;68797;49.782;19.054;2024-03-29T10:44:35;96234.22;;;15.13;40.89
79331;BME280;68797;49.782;19.054;2024-03-29T10:47:05;96212.91;;;14.98;39.43
79331;BME280;68797;49.782;19.054;2024-03-29T10:49:39;96219.72;;;14.90;41.22
79331;BME280;68797;49.782;19.054;2024-03-29T10:52:22;96233.72;;;14.93;42.84
79331;BME280;68797;49.782;19.054;2024-03-29T10:54:50;96224.28;;;14.88;38.61
79331;BME280;68797;49.782;19.054;2024-03-29T10:57:28;96225.44;;;14.83;41.52
79331;BME280;68797;49.782;19.054;2024-03-29T11:00:15;96199.19;;;14.90;40.43
79331;BME280;68797;49.782;19.054;2024-03-29T11:05:44;96199.88;;;15.06;39.58
79331;BME280;68797;49.782;19.054;2024-03-29T11:08:19;96196.66;;;15.01;39.84
79331;BME280;68797;49.782;19.054;2024-03-29T11:10:50;96192.44;;;15.11;41.88
79331;BME280;68797;49.782;19.054;2024-03-29T11:16:11;96177.88;;;15.16;40.40
79331;BME280;68797;49.782;19.054;2024-03-29T11:18:45;96178.44;;;15.08;42.02
79331;BME280;68797;49.782;19.054;2024-03-29T11:21:16;96163.41;;;15.32;42.42
79331;BME280;68797;49.782;19.054;2024-03-29T11:23:55;96187.88;;;15.52;40.84
79331;BME280;68797;49.782;19.054;2024-03-29T11:26:29;96174.47;;;15.66;43.21
79331;BME280;68797;49.782;19.054;2024-03-29T11:29:01;96174.59;;;15.77;40.15
79331;BME280;68797;49.782;19.054;2024-03-29T11:31:38;96139.34;;;15.58;39.70
79331;BME280;68797;49.782;19.054;2024-03-29T11:34:08;96156.50;;;15.81;42.56
79331;BME280;68797;49.782;19.054;2024-03-29T11:36:39;96144.41;;;15.62;39.01
79331;BME280;68797;49.782;19.054;2024-03-29T11:39:06;96127.91;;;15.56;42.65
79331;BME280;68797;49.782;19.054;2024-03-29T11:41:34;96119.69;;;15.46;41.40
79331;BME280;68797;49.782;19.054;2024-03-29T11:44:01;96125.66;;;15.50;42.76
79331;BME280;68797;49.782;19.054;2024-03-29T11:46:29;96137.75;;;15.55;42.58
79331;BME280;68797;49.782;19.054;2024-03-29T11:49:06;96117.84;;;15.59;41.57
79331;BME280;68797;49.782;19.054;2024-03-29T11:51:32;96126.50;;;15.50;42.34
79331;BME280;68797;49.782;19.054;2024-03-29T11:54:02;96127.34;;;15.51;42.72
79331;BME280;68797;49.782;19.054;2024-03-29T11:56:33;96152.19;;;15.53;41.66
79331;BME280;68797;49.782;19.054;2024-03-29T11:59:00;96162.66;;;15.56;42.61
79331;BME280;68797;49.782;19.054;2024-03-29T12:01:26;96130.16;;;15.49;43.97
79331;BME280;68797;49.782;19.054;2024-03-29T12:03:56;96135.06;;;15.55;43.12
79331;BME280;68797;49.782;19.054;2024-03-29T12:06:24;96146.22;;;15.62;48.18
79331;BME280;68797;49.782;19.054;2024-03-29T12:08:51;96147.06;;;15.62;44.58
79331;BME280;68797;49.782;19.054;2024-03-29T12:11:20;96140.53;;;15.54;44.91
79331;BME280;68797;49.782;19.054;2024-03-29T12:13:49;96152.97;;;15.67;45.36
79331;BME280;68797;49.782;19.054;2024-03-29T12:16:15;96166.69;;;15.63;44.86
79331;BME280;68797;49.782;19.054;2024-03-29T12:18:46;96150.16;;;15.56;46.45
79331;BME280;68797;49.782;19.054;2024-03-29T12:21:19;96139.56;;;15.55;48.28
79331;BME280;68797;49.782;19.054;2024-03-29T12:23:48;96148.13;;;15.47;46.52
79331;BME280;68797;49.782;19.054;2024-03-29T12:26:23;96142.59;;;15.63;45.45
79331;BME280;68797;49.782;19.054;2024-03-29T12:28:53;96132.50;;;15.54;44.67
79331;BME280;68797;49.782;19.054;2024-03-29T12:31:26;96126.41;;;15.52;45.52
79331;BME280;68797;49.782;19.054;2024-03-29T12:33:54;96122.56;;;15.56;45.92
79331;BME280;68797;49.782;19.054;2024-03-29T12:36:24;96105.78;;;15.54;46.41
79331;BME280;68797;49.782;19.054;2024-03-29T12:38:58;96110.72;;;15.60;47.59
79331;BME280;68797;49.782;19.054;2024-03-29T12:41:30;96124.09;;;15.60;45.90
79331;BME280;68797;49.782;19.054;2024-03-29T12:43:56;96127.41;;;15.63;46.75
79331;BME280;68797;49.782;19.054;2024-03-29T12:46:25;96120.84;;;15.55;48.30
79331;BME280;68797;49.782;19.054;2024-03-29T12:48:58;96112.72;;;15.56;46.70
79331;BME280;68797;49.782;19.054;2024-03-29T12:51:27;96117.97;;;15.58;47.99
79331;BME280;68797;49.782;19.054;2024-03-29T12:53:55;96106.53;;;15.56;47.53
79331;BME280;68797;49.782;19.054;2024-03-29T12:56:29;96113.56;;;15.57;47.44
79331;BME280;68797;49.782;19.054;2024-03-29T12:58:59;96118.22;;;15.67;48.36
79331;BME280;68797;49.782;19.054;2024-03-29T13:01:28;96123.03;;;15.75;47.22
79331;BME280;68797;49.782;19.054;2024-03-29T13:03:55;96119.28;;;15.65;46.21
79331;BME280;68797;49.782;19.054;2024-03-29T13:06:22;96126.56;;;15.63;48.68
79331;BME280;68797;49.782;19.054;2024-03-29T13:08:49;96109.81;;;15.59;47.58
79331;BME280;68797;49.782;19.054;2024-03-29T13:11:17;96119.81;;;15.70;47.57
79331;BME280;68797;49.782;19.054;2024-03-29T13:13:44;96115.00;;;15.75;47.58
79331;BME280;68797;49.782;19.054;2024-03-29T13:16:12;96104.72;;;15.82;49.48
79331;BME280;68797;49.782;19.054;2024-03-29T13:18:41;96104.19;;;15.77;47.01
79331;BME280;68797;49.782;19.054;2024-03-29T13:21:11;96106.75;;;15.78;48.12
79331;BME280;68797;49.782;19.054;2024-03-29T13:23:40;96116.06;;;15.85;50.01
79331;BME280;68797;49.782;19.054;2024-03-29T13:26:07;96101.06;;;15.83;48.21
79331;BME280;68797;49.782;19.054;2024-03-29T13:28:36;96099.34;;;15.82;46.55
79331;BME280;68797;49.782;19.054;2024-03-29T13:31:04;96116.06;;;15.73;46.77
79331;BME280;68797;49.782;19.054;2024-03-29T13:33:40;96111.56;;;15.60;46.57
79331;BME280;68797;49.782;19.054;2024-03-29T13:36:07;96112.16;;;15.51;46.85
79331;BME280;68797;49.782;19.054;2024-03-29T13:38:34;96128.22;;;15.51;47.04
79331;BME280;68797;49.782;19.054;2024-03-29T13:41:02;96111.13;;;15.54;48.19
79331;BME280;68797;49.782;19.054;2024-03-29T13:43:40;96130.59;;;15.43;49.20
79331;BME280;68797;49.782;19.054;2024-03-29T13:46:11;96118.81;;;15.46;48.74
79331;BME280;68797;49.782;19.054;2024-03-29T13:48:40;96123.19;;;15.47;47.82
79331;BME280;68797;49.782;19.054;2024-03-29T13:51:09;96122.97;;;15.50;48.15
79331;BME280;68797;49.782;19.054;2024-03-29T13:53:41;96130.47;;;15.57;49.29
79331;BME280;68797;49.782;19.054;2024-03-29T13:56:12;96110.56;;;15.49;49.21
79331;BME280;68797;49.782;19.054;2024-03-29T13:58:39;96117.84;;;15.47;48.37
79331;BME280;68797;49.782;19.054;2024-03-29T14:01:06;96117.84;;;15.34;51.02
79331;BME280;68797;49.782;19.054;2024-03-29T14:03:37;96119.44;;;15.36;52.18
79331;BME280;68797;49.782;19.054;2024-03-29T14:06:04;96101.81;;;15.34;51.50
79331;BME280;68797;49.782;19.054;2024-03-29T14:08:32;96115.06;;;15.35;52.30
79331;BME280;68797;49.782;19.054;2024-03-29T14:11:01;96096.88;;;15.40;51.63
79331;BME280;68797;49.782;19.054;2024-03-29T14:13:38;96078.16;;;15.40;51.10
79331;BME280;68797;49.782;19.054;2024-03-29T14:16:05;96094.13;;;15.55;53.22
79331;BME280;68797;49.782;19.054;2024-03-29T14:18:32;96086.09;;;15.55;51.31
79331;BME280;68797;49.782;19.054;2024-03-29T14:21:00;96091.22;;;15.58;50.38
79331;BME280;68797;49.782;19.054;2024-03-29T14:23:29;96097.44;;;15.46;52.06
79331;BME280;68797;49.782;19.054;2024-03-29T14:25:57;96093.34;;;15.40;52.95
79331;BME280;68797;49.782;19.054;2024-03-29T14:28:25;96099.38;;;15.44;52.25
79331;BME280;68797;49.782;19.054;2024-03-29T14:30:53;96116.47;;;15.54;53.47
79331;BME280;68797;49.782;19.054;2024-03-29T14:33:20;96109.38;;;15.40;52.34
79331;BME280;68797;49.782;19.054;2024-03-29T14:35:49;96102.78;;;15.46;52.70
79331;BME280;68797;49.782;19.054;2024-03-29T14:38:19;96100.00;;;15.34;52.48
79331;BME280;68797;49.782;19.054;2024-03-29T14:40:47;96102.44;;;15.37;53.31
79331;BME280;68797;49.782;19.054;2024-03-29T14:43:18;96094.75;;;15.33;53.39
79331;BME280;68797;49.782;19.054;2024-03-29T14:45:45;96095.63;;;15.21;54.21
79331;BME280;68797;49.782;19.054;2024-03-29T14:48:13;96098.91;;;15.24;54.05
79331;BME280;68797;49.782;19.054;2024-03-29T14:50:40;96078.91;;;15.04;55.23